sensor_id;sensor_type;location;lat;lon;timestamp;P1;durP1;ratioP1;P2;durP2;ratioP2
15043;SDS011;7619;48.562;8.910;2022-09-09T00:00:31;2.07;;;1.10;;
15043;SDS011;7619;48.562;8.910;2022-09-09T00:03:02;3.60;;;1.13;;
15043;SDS011;7619;48.562;8.910;2022-09-09T00:05:32;1.40;;;0.87;;
15043;SDS011;7619;48.562;8.910;2022-09-09T00:08:07;1.10;;;0.87;;
15043;SDS011;7619;48.562;8.910;2022-09-09T00:10:40;0.80;;;0.70;;
15043;SDS011;7619;48.562;8.910;2022-09-09T00:13:12;0.70;;;0.67;;
15043;SDS011;7619;48.562;8.910;2022-09-09T00:15:45;3.57;;;0.87;;
15043;SDS011;7619;48.562;8.910;2022-09-09T00:18:18;2.37;;;1.13;;
15043;SDS011;7619;48.562;8.910;2022-09-09T00:20:52;1.43;;;0.73;;
15043;SDS011;7619;48.562;8.910;2022-09-09T00:23:25;5.63;;;0.87;;
15043;SDS011;7619;48.562;8.910;2022-09-09T00:25:59;3.07;;;0.90;;
15043;SDS011;7619;48.562;8.910;2022-09-09T00:28:33;0.70;;;0.70;;
15043;SDS011;7619;48.562;8.910;2022-09-09T00:31:10;2.03;;;1.07;;
15043;SDS011;7619;48.562;8.910;2022-09-09T00:33:40;1.33;;;0.80;;
15043;SDS011;7619;48.562;8.910;2022-09-09T00:36:13;1.43;;;0.90;;
15043;SDS011;7619;48.562;8.910;2022-09-09T00:38:46;1.93;;;0.67;;
15043;SDS011;7619;48.562;8.910;2022-09-09T00:41:17;0.97;;;0.67;;
15043;SDS011;7619;48.562;8.910;2022-09-09T00:43:51;3.73;;;0.90;;
15043;SDS011;7619;48.562;8.910;2022-09-09T00:46:28;1.37;;;1.00;;
15043;SDS011;7619;48.562;8.910;2022-09-09T00:49:05;1.57;;;0.70;;
15043;SDS011;7619;48.562;8.910;2022-09-09T00:51:40;0.83;;;0.53;;
15043;SDS011;7619;48.562;8.910;2022-09-09T00:54:20;1.50;;;0.80;;
15043;SDS011;7619;48.562;8.910;2022-09-09T00:56:56;0.93;;;0.73;;
15043;SDS011;7619;48.562;8.910;2022-09-09T00:59:27;2.50;;;1.07;;
15043;SDS011;7619;48.562;8.910;2022-09-09T01:01:58;1.77;;;0.90;;
15043;SDS011;7619;48.562;8.910;2022-09-09T01:04:28;3.07;;;0.70;;
15043;SDS011;7619;48.562;8.910;2022-09-09T01:07:02;1.60;;;0.60;;
15043;SDS011;7619;48.562;8.910;2022-09-09T01:09:32;1.63;;;0.70;;
15043;SDS011;7619;48.562;8.910;2022-09-09T01:12:07;1.10;;;0.70;;
15043;SDS011;7619;48.562;8.910;2022-09-09T01:14:47;2.20;;;0.90;;
15043;SDS011;7619;48.562;8.910;2022-09-09T01:17:19;4.23;;;0.87;;
15043;SDS011;7619;48.562;8.910;2022-09-09T01:19:55;2.13;;;0.80;;
15043;SDS011;7619;48.562;8.910;2022-09-09T01:22:28;1.37;;;0.77;;
15043;SDS011;7619;48.562;8.910;2022-09-09T01:25:15;1.13;;;0.70;;
15043;SDS011;7619;48.562;8.910;2022-09-09T01:27:57;1.57;;;0.80;;
15043;SDS011;7619;48.562;8.910;2022-09-09T01:30:29;1.00;;;0.70;;
15043;SDS011;7619;48.562;8.910;2022-09-09T01:33:00;2.93;;;1.00;;
15043;SDS011;7619;48.562;8.910;2022-09-09T01:35:31;2.80;;;1.07;;
15043;SDS011;7619;48.562;8.910;2022-09-09T01:48:42;1.13;;;0.67;;
15043;SDS011;7619;48.562;8.910;2022-09-09T01:51:12;1.93;;;1.00;;
15043;SDS011;7619;48.562;8.910;2022-09-09T01:53:41;1.20;;;0.87;;
15043;SDS011;7619;48.562;8.910;2022-09-09T01:56:17;0.70;;;0.70;;
15043;SDS011;7619;48.562;8.910;2022-09-09T01:58:50;1.43;;;0.80;;
15043;SDS011;7619;48.562;8.910;2022-09-09T02:01:27;1.03;;;0.93;;
15043;SDS011;7619;48.562;8.910;2022-09-09T02:03:59;3.57;;;1.13;;
15043;SDS011;7619;48.562;8.910;2022-09-09T02:06:34;2.60;;;0.80;;
15043;SDS011;7619;48.562;8.910;2022-09-09T02:09:04;1.63;;;0.80;;
15043;SDS011;7619;48.562;8.910;2022-09-09T02:11:34;2.40;;;0.83;;
15043;SDS011;7619;48.562;8.910;2022-09-09T02:14:05;2.60;;;0.90;;
15043;SDS011;7619;48.562;8.910;2022-09-09T02:16:35;4.17;;;0.90;;
15043;SDS011;7619;48.562;8.910;2022-09-09T02:19:07;1.23;;;1.07;;
15043;SDS011;7619;48.562;8.910;2022-09-09T02:21:40;0.93;;;0.70;;
15043;SDS011;7619;48.562;8.910;2022-09-09T02:24:12;1.17;;;0.93;;
15043;SDS011;7619;48.562;8.910;2022-09-09T02:26:43;1.00;;;1.00;;
15043;SDS011;7619;48.562;8.910;2022-09-09T02:29:18;0.73;;;0.70;;
15043;SDS011;7619;48.562;8.910;2022-09-09T02:31:47;2.70;;;1.30;;
15043;SDS011;7619;48.562;8.910;2022-09-09T02:34:18;2.17;;;0.83;;
15043;SDS011;7619;48.562;8.910;2022-09-09T02:36:50;4.53;;;1.10;;
15043;SDS011;7619;48.562;8.910;2022-09-09T02:39:21;1.57;;;1.20;;
15043;SDS011;7619;48.562;8.910;2022-09-09T02:41:50;2.60;;;0.90;;
15043;SDS011;7619;48.562;8.910;2022-09-09T02:44:19;1.53;;;1.00;;
15043;SDS011;7619;48.562;8.910;2022-09-09T02:46:54;0.97;;;0.80;;
15043;SDS011;7619;48.562;8.910;2022-09-09T02:49:32;2.93;;;1.00;;
15043;SDS011;7619;48.562;8.910;2022-09-09T02:52:04;1.73;;;1.00;;
15043;SDS011;7619;48.562;8.910;2022-09-09T02:54:35;3.57;;;1.37;;
15043;SDS011;7619;48.562;8.910;2022-09-09T02:57:08;3.77;;;1.57;;
15043;SDS011;7619;48.562;8.910;2022-09-09T02:59:38;2.73;;;0.90;;
15043;SDS011;7619;48.562;8.910;2022-09-09T03:02:08;1.97;;;0.93;;
15043;SDS011;7619;48.562;8.910;2022-09-09T03:04:37;1.17;;;0.83;;
15043;SDS011;7619;48.562;8.910;2022-09-09T03:07:08;1.37;;;1.10;;
15043;SDS011;7619;48.562;8.910;2022-09-09T03:09:37;2.50;;;1.10;;
15043;SDS011;7619;48.562;8.910;2022-09-09T03:14:49;1.40;;;0.83;;
15043;SDS011;7619;48.562;8.910;2022-09-09T03:17:18;1.00;;;0.90;;
15043;SDS011;7619;48.562;8.910;2022-09-09T03:19:47;1.97;;;0.90;;
15043;SDS011;7619;48.562;8.910;2022-09-09T03:22:18;2.77;;;0.90;;
15043;SDS011;7619;48.562;8.910;2022-09-09T03:24:47;3.07;;;0.90;;
15043;SDS011;7619;48.562;8.910;2022-09-09T03:27:17;2.00;;;1.20;;
15043;SDS011;7619;48.562;8.910;2022-09-09T03:29:46;0.77;;;0.77;;
15043;SDS011;7619;48.562;8.910;2022-09-09T03:32:18;2.47;;;1.20;;
15043;SDS011;7619;48.562;8.910;2022-09-09T03:34:47;1.33;;;0.60;;
15043;SDS011;7619;48.562;8.910;2022-09-09T03:37:16;1.53;;;0.90;;
15043;SDS011;7619;48.562;8.910;2022-09-09T03:39:46;2.80;;;0.87;;
15043;SDS011;7619;48.562;8.910;2022-09-09T03:42:15;1.20;;;1.10;;
15043;SDS011;7619;48.562;8.910;2022-09-09T03:44:45;1.13;;;0.70;;
15043;SDS011;7619;48.562;8.910;2022-09-09T03:47:16;4.33;;;0.97;;
15043;SDS011;7619;48.562;8.910;2022-09-09T03:49:45;1.53;;;0.97;;
15043;SDS011;7619;48.562;8.910;2022-09-09T03:52:15;1.20;;;0.70;;
15043;SDS011;7619;48.562;8.910;2022-09-09T03:54:45;3.43;;;0.90;;
15043;SDS011;7619;48.562;8.910;2022-09-09T03:57:14;0.97;;;0.87;;
15043;SDS011;7619;48.562;8.910;2022-09-09T03:59:43;1.67;;;1.13;;
15043;SDS011;7619;48.562;8.910;2022-09-09T04:02:12;1.23;;;0.73;;
15043;SDS011;7619;48.562;8.910;2022-09-09T04:04:41;3.63;;;1.00;;
15043;SDS011;7619;48.562;8.910;2022-09-09T04:07:10;1.30;;;0.70;;
15043;SDS011;7619;48.562;8.910;2022-09-09T04:09:40;1.80;;;0.90;;
15043;SDS011;7619;48.562;8.910;2022-09-09T04:12:09;1.50;;;1.00;;
15043;SDS011;7619;48.562;8.910;2022-09-09T04:14:39;0.93;;;0.73;;
15043;SDS011;7619;48.562;8.910;2022-09-09T04:17:08;1.20;;;0.77;;
15043;SDS011;7619;48.562;8.910;2022-09-09T04:19:37;1.00;;;0.90;;
15043;SDS011;7619;48.562;8.910;2022-09-09T04:22:06;1.93;;;1.10;;
15043;SDS011;7619;48.562;8.910;2022-09-09T04:27:12;3.53;;;0.80;;
15043;SDS011;7619;48.562;8.910;2022-09-09T04:32:15;2.13;;;1.03;;
15043;SDS011;7619;48.562;8.910;2022-09-09T04:34:44;2.33;;;0.87;;
15043;SDS011;7619;48.562;8.910;2022-09-09T04:37:14;0.80;;;0.80;;
15043;SDS011;7619;48.562;8.910;2022-09-09T04:39:43;1.30;;;0.90;;
15043;SDS011;7619;48.562;8.910;2022-09-09T04:42:12;2.07;;;1.33;;
15043;SDS011;7619;48.562;8.910;2022-09-09T04:44:42;2.03;;;0.90;;
15043;SDS011;7619;48.562;8.910;2022-09-09T04:47:11;1.43;;;0.60;;
15043;SDS011;7619;48.562;8.910;2022-09-09T04:49:41;0.80;;;0.80;;
15043;SDS011;7619;48.562;8.910;2022-09-09T04:52:10;1.10;;;0.80;;
15043;SDS011;7619;48.562;8.910;2022-09-09T04:54:39;2.40;;;1.00;;
15043;SDS011;7619;48.562;8.910;2022-09-09T04:57:07;1.10;;;1.00;;
15043;SDS011;7619;48.562;8.910;2022-09-09T04:59:37;1.13;;;0.93;;
15043;SDS011;7619;48.562;8.910;2022-09-09T05:02:06;4.80;;;1.50;;
15043;SDS011;7619;48.562;8.910;2022-09-09T05:04:35;2.23;;;1.10;;
15043;SDS011;7619;48.562;8.910;2022-09-09T05:07:04;1.90;;;0.80;;
15043;SDS011;7619;48.562;8.910;2022-09-09T05:09:33;0.93;;;0.90;;
15043;SDS011;7619;48.562;8.910;2022-09-09T05:12:02;1.73;;;0.87;;
15043;SDS011;7619;48.562;8.910;2022-09-09T05:14:31;1.47;;;0.93;;
15043;SDS011;7619;48.562;8.910;2022-09-09T05:17:02;1.80;;;1.00;;
15043;SDS011;7619;48.562;8.910;2022-09-09T05:19:31;1.20;;;0.90;;
15043;SDS011;7619;48.562;8.910;2022-09-09T05:22:01;1.40;;;1.10;;
15043;SDS011;7619;48.562;8.910;2022-09-09T05:24:28;3.27;;;1.07;;
15043;SDS011;7619;48.562;8.910;2022-09-09T05:26:59;0.90;;;0.90;;
15043;SDS011;7619;48.562;8.910;2022-09-09T05:29:29;2.37;;;1.00;;
15043;SDS011;7619;48.562;8.910;2022-09-09T05:31:59;1.20;;;1.10;;
15043;SDS011;7619;48.562;8.910;2022-09-09T05:34:26;2.53;;;1.07;;
15043;SDS011;7619;48.562;8.910;2022-09-09T05:36:56;1.73;;;1.07;;
15043;SDS011;7619;48.562;8.910;2022-09-09T05:39:25;3.77;;;1.10;;
15043;SDS011;7619;48.562;8.910;2022-09-09T05:41:54;2.23;;;0.80;;
15043;SDS011;7619;48.562;8.910;2022-09-09T05:44:22;0.93;;;0.87;;
15043;SDS011;7619;48.562;8.910;2022-09-09T05:46:53;2.33;;;0.77;;
15043;SDS011;7619;48.562;8.910;2022-09-09T05:49:21;0.77;;;0.73;;
15043;SDS011;7619;48.562;8.910;2022-09-09T05:51:50;2.40;;;1.10;;
15043;SDS011;7619;48.562;8.910;2022-09-09T05:54:19;2.17;;;1.00;;
15043;SDS011;7619;48.562;8.910;2022-09-09T05:56:47;5.90;;;0.93;;
15043;SDS011;7619;48.562;8.910;2022-09-09T05:59:17;4.37;;;1.00;;
15043;SDS011;7619;48.562;8.910;2022-09-09T06:01:47;3.50;;;1.10;;
15043;SDS011;7619;48.562;8.910;2022-09-09T06:04:15;1.43;;;1.00;;
15043;SDS011;7619;48.562;8.910;2022-09-09T06:06:44;1.63;;;0.83;;
15043;SDS011;7619;48.562;8.910;2022-09-09T06:09:14;1.93;;;1.00;;
15043;SDS011;7619;48.562;8.910;2022-09-09T06:11:44;1.37;;;1.00;;
15043;SDS011;7619;48.562;8.910;2022-09-09T06:14:11;1.50;;;0.83;;
15043;SDS011;7619;48.562;8.910;2022-09-09T06:16:40;1.33;;;0.87;;
15043;SDS011;7619;48.562;8.910;2022-09-09T06:19:11;2.73;;;1.00;;
15043;SDS011;7619;48.562;8.910;2022-09-09T06:21:40;1.20;;;0.73;;
15043;SDS011;7619;48.562;8.910;2022-09-09T06:24:10;1.80;;;1.13;;
15043;SDS011;7619;48.562;8.910;2022-09-09T06:26:41;2.70;;;1.20;;
15043;SDS011;7619;48.562;8.910;2022-09-09T06:29:10;1.83;;;1.00;;
15043;SDS011;7619;48.562;8.910;2022-09-09T06:31:39;2.43;;;0.93;;
15043;SDS011;7619;48.562;8.910;2022-09-09T06:34:08;4.17;;;1.03;;
15043;SDS011;7619;48.562;8.910;2022-09-09T06:36:37;6.10;;;1.00;;
15043;SDS011;7619;48.562;8.910;2022-09-09T06:39:07;5.73;;;1.03;;
15043;SDS011;7619;48.562;8.910;2022-09-09T06:41:37;1.27;;;1.00;;
15043;SDS011;7619;48.562;8.910;2022-09-09T06:44:07;1.00;;;0.80;;
15043;SDS011;7619;48.562;8.910;2022-09-09T06:46:38;2.33;;;1.10;;
15043;SDS011;7619;48.562;8.910;2022-09-09T06:49:07;2.33;;;0.90;;
15043;SDS011;7619;48.562;8.910;2022-09-09T06:51:37;1.47;;;0.90;;
15043;SDS011;7619;48.562;8.910;2022-09-09T06:56:55;2.40;;;1.20;;
15043;SDS011;7619;48.562;8.910;2022-09-09T06:59:24;1.20;;;1.10;;
15043;SDS011;7619;48.562;8.910;2022-09-09T07:01:53;1.43;;;1.10;;
15043;SDS011;7619;48.562;8.910;2022-09-09T07:04:23;3.37;;;0.90;;
15043;SDS011;7619;48.562;8.910;2022-09-09T07:06:52;1.70;;;0.87;;
15043;SDS011;7619;48.562;8.910;2022-09-09T07:09:21;0.80;;;0.80;;
15043;SDS011;7619;48.562;8.910;2022-09-09T07:11:51;2.77;;;1.20;;
15043;SDS011;7619;48.562;8.910;2022-09-09T07:14:20;5.10;;;1.30;;
15043;SDS011;7619;48.562;8.910;2022-09-09T07:16:48;5.07;;;1.10;;
15043;SDS011;7619;48.562;8.910;2022-09-09T07:19:17;1.27;;;0.80;;
15043;SDS011;7619;48.562;8.910;2022-09-09T07:21:46;2.87;;;0.80;;
15043;SDS011;7619;48.562;8.910;2022-09-09T07:24:15;1.10;;;1.00;;
15043;SDS011;7619;48.562;8.910;2022-09-09T07:26:44;5.43;;;1.10;;
15043;SDS011;7619;48.562;8.910;2022-09-09T07:29:13;2.13;;;0.83;;
15043;SDS011;7619;48.562;8.910;2022-09-09T07:31:42;1.53;;;0.70;;
15043;SDS011;7619;48.562;8.910;2022-09-09T07:34:11;3.00;;;1.13;;
15043;SDS011;7619;48.562;8.910;2022-09-09T07:36:40;3.30;;;1.00;;
15043;SDS011;7619;48.562;8.910;2022-09-09T07:39:10;5.40;;;1.13;;
15043;SDS011;7619;48.562;8.910;2022-09-09T07:41:40;3.47;;;0.90;;
15043;SDS011;7619;48.562;8.910;2022-09-09T07:44:11;1.97;;;0.93;;
15043;SDS011;7619;48.562;8.910;2022-09-09T07:46:41;3.50;;;0.70;;
15043;SDS011;7619;48.562;8.910;2022-09-09T07:49:11;0.93;;;0.90;;
15043;SDS011;7619;48.562;8.910;2022-09-09T07:51:41;3.13;;;0.87;;
15043;SDS011;7619;48.562;8.910;2022-09-09T07:54:12;0.70;;;0.57;;
15043;SDS011;7619;48.562;8.910;2022-09-09T07:56:42;0.97;;;0.83;;
15043;SDS011;7619;48.562;8.910;2022-09-09T07:59:11;6.43;;;1.37;;
15043;SDS011;7619;48.562;8.910;2022-09-09T08:01:41;2.87;;;1.07;;
15043;SDS011;7619;48.562;8.910;2022-09-09T08:04:12;1.50;;;0.80;;
15043;SDS011;7619;48.562;8.910;2022-09-09T08:06:43;1.47;;;0.90;;
15043;SDS011;7619;48.562;8.910;2022-09-09T08:09:14;2.27;;;0.77;;
15043;SDS011;7619;48.562;8.910;2022-09-09T08:11:42;1.03;;;0.90;;
15043;SDS011;7619;48.562;8.910;2022-09-09T08:14:11;2.67;;;0.60;;
15043;SDS011;7619;48.562;8.910;2022-09-09T08:16:42;1.93;;;0.70;;
15043;SDS011;7619;48.562;8.910;2022-09-09T08:19:13;1.90;;;0.77;;
15043;SDS011;7619;48.562;8.910;2022-09-09T08:21:43;1.27;;;0.70;;
15043;SDS011;7619;48.562;8.910;2022-09-09T08:24:11;4.70;;;1.30;;
15043;SDS011;7619;48.562;8.910;2022-09-09T08:26:41;1.77;;;0.90;;
15043;SDS011;7619;48.562;8.910;2022-09-09T08:29:12;1.50;;;0.87;;
15043;SDS011;7619;48.562;8.910;2022-09-09T08:31:42;2.10;;;0.80;;
15043;SDS011;7619;48.562;8.910;2022-09-09T08:34:12;5.80;;;0.60;;
15043;SDS011;7619;48.562;8.910;2022-09-09T08:36:42;1.40;;;0.90;;
15043;SDS011;7619;48.562;8.910;2022-09-09T08:39:13;1.00;;;0.80;;
15043;SDS011;7619;48.562;8.910;2022-09-09T08:45:02;3.40;;;1.03;;
15043;SDS011;7619;48.562;8.910;2022-09-09T08:47:48;3.27;;;0.80;;
15043;SDS011;7619;48.562;8.910;2022-09-09T08:50:17;2.83;;;0.90;;
15043;SDS011;7619;48.562;8.910;2022-09-09T08:52:52;1.73;;;0.70;;
15043;SDS011;7619;48.562;8.910;2022-09-09T08:55:39;2.40;;;0.70;;
15043;SDS011;7619;48.562;8.910;2022-09-09T08:58:13;2.23;;;0.67;;
15043;SDS011;7619;48.562;8.910;2022-09-09T09:00:48;1.43;;;0.73;;
15043;SDS011;7619;48.562;8.910;2022-09-09T09:03:18;1.70;;;0.73;;
15043;SDS011;7619;48.562;8.910;2022-09-09T09:05:50;1.40;;;0.87;;
15043;SDS011;7619;48.562;8.910;2022-09-09T09:08:24;2.60;;;1.00;;
15043;SDS011;7619;48.562;8.910;2022-09-09T09:10:54;4.77;;;0.80;;
15043;SDS011;7619;48.562;8.910;2022-09-09T09:13:30;1.93;;;0.67;;
15043;SDS011;7619;48.562;8.910;2022-09-09T09:16:02;3.27;;;0.90;;
15043;SDS011;7619;48.562;8.910;2022-09-09T09:18:32;1.27;;;0.60;;
15043;SDS011;7619;48.562;8.910;2022-09-09T09:21:03;2.83;;;0.70;;
15043;SDS011;7619;48.562;8.910;2022-09-09T09:23:35;2.70;;;0.70;;
15043;SDS011;7619;48.562;8.910;2022-09-09T09:26:07;0.73;;;0.40;;
15043;SDS011;7619;48.562;8.910;2022-09-09T09:28:38;2.73;;;0.87;;
15043;SDS011;7619;48.562;8.910;2022-09-09T09:31:10;0.93;;;0.57;;
15043;SDS011;7619;48.562;8.910;2022-09-09T09:33:43;1.00;;;0.90;;
15043;SDS011;7619;48.562;8.910;2022-09-09T09:36:12;1.57;;;0.70;;
15043;SDS011;7619;48.562;8.910;2022-09-09T09:38:52;2.40;;;0.63;;
15043;SDS011;7619;48.562;8.910;2022-09-09T09:41:29;3.50;;;0.87;;
15043;SDS011;7619;48.562;8.910;2022-09-09T09:44:02;1.07;;;0.70;;
15043;SDS011;7619;48.562;8.910;2022-09-09T09:46:31;4.87;;;1.03;;
15043;SDS011;7619;48.562;8.910;2022-09-09T09:49:01;5.77;;;0.87;;
15043;SDS011;7619;48.562;8.910;2022-09-09T09:51:32;3.20;;;0.67;;
15043;SDS011;7619;48.562;8.910;2022-09-09T09:54:05;1.20;;;0.70;;
15043;SDS011;7619;48.562;8.910;2022-09-09T09:56:41;6.17;;;0.67;;
15043;SDS011;7619;48.562;8.910;2022-09-09T09:59:23;1.30;;;0.60;;
15043;SDS011;7619;48.562;8.910;2022-09-09T10:02:16;0.60;;;0.60;;
15043;SDS011;7619;48.562;8.910;2022-09-09T10:04:47;0.40;;;0.40;;
15043;SDS011;7619;48.562;8.910;2022-09-09T10:07:18;1.00;;;0.40;;
15043;SDS011;7619;48.562;8.910;2022-09-09T10:09:48;2.27;;;0.63;;
15043;SDS011;7619;48.562;8.910;2022-09-09T10:12:24;4.53;;;0.90;;
15043;SDS011;7619;48.562;8.910;2022-09-09T10:17:32;2.53;;;0.47;;
15043;SDS011;7619;48.562;8.910;2022-09-09T10:20:04;1.80;;;0.90;;
15043;SDS011;7619;48.562;8.910;2022-09-09T10:22:47;1.73;;;0.47;;
15043;SDS011;7619;48.562;8.910;2022-09-09T10:25:25;2.83;;;0.80;;
15043;SDS011;7619;48.562;8.910;2022-09-09T10:28:07;1.53;;;0.50;;
15043;SDS011;7619;48.562;8.910;2022-09-09T10:30:33;0.93;;;0.67;;
15043;SDS011;7619;48.562;8.910;2022-09-09T10:33:05;0.90;;;0.60;;
15043;SDS011;7619;48.562;8.910;2022-09-09T10:35:39;0.63;;;0.53;;
15043;SDS011;7619;48.562;8.910;2022-09-09T10:38:17;1.57;;;0.60;;
15043;SDS011;7619;48.562;8.910;2022-09-09T10:41:04;1.90;;;0.53;;
15043;SDS011;7619;48.562;8.910;2022-09-09T10:43:38;4.40;;;0.60;;
15043;SDS011;7619;48.562;8.910;2022-09-09T10:46:17;4.43;;;0.67;;
15043;SDS011;7619;48.562;8.910;2022-09-09T10:48:53;3.53;;;0.73;;
15043;SDS011;7619;48.562;8.910;2022-09-09T10:51:26;1.73;;;1.00;;
15043;SDS011;7619;48.562;8.910;2022-09-09T10:53:57;3.33;;;0.73;;
15043;SDS011;7619;48.562;8.910;2022-09-09T10:56:34;2.93;;;0.70;;
15043;SDS011;7619;48.562;8.910;2022-09-09T10:59:04;1.70;;;0.57;;
15043;SDS011;7619;48.562;8.910;2022-09-09T11:01:37;0.30;;;0.30;;
15043;SDS011;7619;48.562;8.910;2022-09-09T11:04:08;2.50;;;0.53;;
15043;SDS011;7619;48.562;8.910;2022-09-09T11:06:39;2.80;;;0.93;;
15043;SDS011;7619;48.562;8.910;2022-09-09T11:09:14;1.63;;;0.50;;
15043;SDS011;7619;48.562;8.910;2022-09-09T11:11:44;0.53;;;0.30;;
15043;SDS011;7619;48.562;8.910;2022-09-09T11:14:19;1.80;;;0.70;;
15043;SDS011;7619;48.562;8.910;2022-09-09T11:16:49;0.40;;;0.40;;
15043;SDS011;7619;48.562;8.910;2022-09-09T11:19:17;0.63;;;0.40;;
15043;SDS011;7619;48.562;8.910;2022-09-09T11:21:49;0.53;;;0.23;;
15043;SDS011;7619;48.562;8.910;2022-09-09T11:24:21;1.00;;;0.20;;
15043;SDS011;7619;48.562;8.910;2022-09-09T11:26:54;0.93;;;0.30;;
15043;SDS011;7619;48.562;8.910;2022-09-09T11:32:19;1.50;;;0.53;;
15043;SDS011;7619;48.562;8.910;2022-09-09T11:35:14;0.10;;;0.10;;
15043;SDS011;7619;48.562;8.910;2022-09-09T11:37:57;0.40;;;0.27;;
15043;SDS011;7619;48.562;8.910;2022-09-09T11:40:25;0.83;;;0.30;;
15043;SDS011;7619;48.562;8.910;2022-09-09T11:43:03;0.10;;;0.10;;
15043;SDS011;7619;48.562;8.910;2022-09-09T11:45:34;0.20;;;0.20;;
15043;SDS011;7619;48.562;8.910;2022-09-09T11:48:04;0.10;;;0.10;;
15043;SDS011;7619;48.562;8.910;2022-09-09T11:50:40;0.53;;;0.40;;
15043;SDS011;7619;48.562;8.910;2022-09-09T11:53:20;2.00;;;0.53;;
15043;SDS011;7619;48.562;8.910;2022-09-09T11:56:03;2.10;;;0.50;;
15043;SDS011;7619;48.562;8.910;2022-09-09T11:58:36;0.53;;;0.30;;
15043;SDS011;7619;48.562;8.910;2022-09-09T12:03:59;1.33;;;0.57;;
15043;SDS011;7619;48.562;8.910;2022-09-09T12:06:26;1.27;;;0.30;;
15043;SDS011;7619;48.562;8.910;2022-09-09T12:08:58;2.70;;;0.43;;
15043;SDS011;7619;48.562;8.910;2022-09-09T12:14:19;2.00;;;0.40;;
15043;SDS011;7619;48.562;8.910;2022-09-09T12:16:58;3.40;;;0.47;;
15043;SDS011;7619;48.562;8.910;2022-09-09T12:19:36;2.90;;;0.57;;
15043;SDS011;7619;48.562;8.910;2022-09-09T12:22:06;3.67;;;0.67;;
15043;SDS011;7619;48.562;8.910;2022-09-09T12:24:35;1.33;;;0.60;;
15043;SDS011;7619;48.562;8.910;2022-09-09T12:27:06;1.60;;;0.60;;
15043;SDS011;7619;48.562;8.910;2022-09-09T12:29:37;1.47;;;0.70;;
15043;SDS011;7619;48.562;8.910;2022-09-09T12:32:10;0.80;;;0.30;;
15043;SDS011;7619;48.562;8.910;2022-09-09T12:34:41;0.43;;;0.40;;
15043;SDS011;7619;48.562;8.910;2022-09-09T12:37:17;1.87;;;0.57;;
15043;SDS011;7619;48.562;8.910;2022-09-09T12:39:47;4.57;;;0.50;;
15043;SDS011;7619;48.562;8.910;2022-09-09T12:42:23;1.77;;;0.83;;
15043;SDS011;7619;48.562;8.910;2022-09-09T12:44:55;2.73;;;0.60;;
15043;SDS011;7619;48.562;8.910;2022-09-09T12:47:24;5.50;;;0.70;;
15043;SDS011;7619;48.562;8.910;2022-09-09T12:49:53;1.50;;;0.50;;
15043;SDS011;7619;48.562;8.910;2022-09-09T12:52:24;1.23;;;0.50;;
15043;SDS011;7619;48.562;8.910;2022-09-09T12:54:57;3.10;;;0.57;;
15043;SDS011;7619;48.562;8.910;2022-09-09T12:57:31;2.50;;;0.60;;
15043;SDS011;7619;48.562;8.910;2022-09-09T13:00:07;2.83;;;0.60;;
15043;SDS011;7619;48.562;8.910;2022-09-09T13:02:48;0.93;;;0.50;;
15043;SDS011;7619;48.562;8.910;2022-09-09T13:05:21;2.47;;;0.50;;
15043;SDS011;7619;48.562;8.910;2022-09-09T13:07:51;0.47;;;0.43;;
15043;SDS011;7619;48.562;8.910;2022-09-09T13:10:23;1.43;;;0.40;;
15043;SDS011;7619;48.562;8.910;2022-09-09T13:12:55;0.67;;;0.30;;
15043;SDS011;7619;48.562;8.910;2022-09-09T13:15:25;0.57;;;0.40;;
15043;SDS011;7619;48.562;8.910;2022-09-09T13:17:57;0.40;;;0.30;;
15043;SDS011;7619;48.562;8.910;2022-09-09T13:20:28;0.40;;;0.40;;
15043;SDS011;7619;48.562;8.910;2022-09-09T13:22:57;1.13;;;0.40;;
15043;SDS011;7619;48.562;8.910;2022-09-09T13:25:27;1.27;;;0.70;;
15043;SDS011;7619;48.562;8.910;2022-09-09T13:27:57;1.57;;;0.50;;
15043;SDS011;7619;48.562;8.910;2022-09-09T13:30:29;3.17;;;0.40;;
15043;SDS011;7619;48.562;8.910;2022-09-09T13:33:20;0.93;;;0.37;;
15043;SDS011;7619;48.562;8.910;2022-09-09T13:35:51;5.03;;;0.50;;
15043;SDS011;7619;48.562;8.910;2022-09-09T13:38:22;1.60;;;0.40;;
15043;SDS011;7619;48.562;8.910;2022-09-09T13:40:52;3.23;;;0.50;;
15043;SDS011;7619;48.562;8.910;2022-09-09T13:43:28;0.43;;;0.20;;
15043;SDS011;7619;48.562;8.910;2022-09-09T13:45:57;0.53;;;0.20;;
15043;SDS011;7619;48.562;8.910;2022-09-09T13:48:28;0.93;;;0.10;;
15043;SDS011;7619;48.562;8.910;2022-09-09T13:50:58;0.93;;;0.40;;
15043;SDS011;7619;48.562;8.910;2022-09-09T13:53:30;0.53;;;0.30;;
15043;SDS011;7619;48.562;8.910;2022-09-09T13:56:00;0.87;;;0.40;;
15043;SDS011;7619;48.562;8.910;2022-09-09T14:01:05;1.90;;;0.33;;
15043;SDS011;7619;48.562;8.910;2022-09-09T14:03:46;1.90;;;0.50;;
15043;SDS011;7619;48.562;8.910;2022-09-09T14:11:31;2.53;;;0.30;;
15043;SDS011;7619;48.562;8.910;2022-09-09T14:14:00;3.37;;;0.40;;
15043;SDS011;7619;48.562;8.910;2022-09-09T14:16:29;1.60;;;0.67;;
15043;SDS011;7619;48.562;8.910;2022-09-09T14:18:57;0.93;;;0.30;;
15043;SDS011;7619;48.562;8.910;2022-09-09T14:21:27;4.87;;;0.43;;
15043;SDS011;7619;48.562;8.910;2022-09-09T14:23:56;2.43;;;0.50;;
15043;SDS011;7619;48.562;8.910;2022-09-09T14:26:24;1.50;;;0.77;;
15043;SDS011;7619;48.562;8.910;2022-09-09T14:28:55;4.00;;;0.40;;
15043;SDS011;7619;48.562;8.910;2022-09-09T14:31:24;1.23;;;0.50;;
15043;SDS011;7619;48.562;8.910;2022-09-09T14:33:53;0.33;;;0.33;;
15043;SDS011;7619;48.562;8.910;2022-09-09T14:36:23;0.80;;;0.40;;
15043;SDS011;7619;48.562;8.910;2022-09-09T14:38:51;0.60;;;0.40;;
15043;SDS011;7619;48.562;8.910;2022-09-09T14:41:20;2.17;;;0.70;;
15043;SDS011;7619;48.562;8.910;2022-09-09T14:43:49;0.63;;;0.50;;
15043;SDS011;7619;48.562;8.910;2022-09-09T14:46:20;0.43;;;0.30;;
15043;SDS011;7619;48.562;8.910;2022-09-09T14:48:48;1.50;;;0.53;;
15043;SDS011;7619;48.562;8.910;2022-09-09T14:51:18;1.53;;;0.50;;
15043;SDS011;7619;48.562;8.910;2022-09-09T14:53:50;1.20;;;0.50;;
15043;SDS011;7619;48.562;8.910;2022-09-09T14:56:20;4.17;;;0.77;;
15043;SDS011;7619;48.562;8.910;2022-09-09T14:58:52;1.40;;;0.27;;
15043;SDS011;7619;48.562;8.910;2022-09-09T15:01:22;1.60;;;0.60;;
15043;SDS011;7619;48.562;8.910;2022-09-09T15:03:51;1.43;;;0.53;;
15043;SDS011;7619;48.562;8.910;2022-09-09T15:06:23;0.80;;;0.40;;
15043;SDS011;7619;48.562;8.910;2022-09-09T15:08:52;1.00;;;0.40;;
15043;SDS011;7619;48.562;8.910;2022-09-09T15:11:25;1.87;;;0.50;;
15043;SDS011;7619;48.562;8.910;2022-09-09T15:13:56;3.60;;;0.63;;
15043;SDS011;7619;48.562;8.910;2022-09-09T15:16:26;0.47;;;0.20;;
15043;SDS011;7619;48.562;8.910;2022-09-09T15:18:56;2.20;;;0.30;;
15043;SDS011;7619;48.562;8.910;2022-09-09T15:21:27;5.03;;;0.37;;
15043;SDS011;7619;48.562;8.910;2022-09-09T15:23:57;1.10;;;0.37;;
15043;SDS011;7619;48.562;8.910;2022-09-09T15:26:26;1.80;;;0.40;;
15043;SDS011;7619;48.562;8.910;2022-09-09T15:28:56;0.50;;;0.30;;
15043;SDS011;7619;48.562;8.910;2022-09-09T15:31:27;2.23;;;0.67;;
15043;SDS011;7619;48.562;8.910;2022-09-09T15:33:57;0.87;;;0.57;;
15043;SDS011;7619;48.562;8.910;2022-09-09T15:36:28;0.50;;;0.40;;
15043;SDS011;7619;48.562;8.910;2022-09-09T15:38:58;1.20;;;0.50;;
15043;SDS011;7619;48.562;8.910;2022-09-09T15:41:28;0.10;;;0.10;;
15043;SDS011;7619;48.562;8.910;2022-09-09T15:43:59;0.23;;;0.23;;
15043;SDS011;7619;48.562;8.910;2022-09-09T15:46:29;0.53;;;0.23;;
15043;SDS011;7619;48.562;8.910;2022-09-09T15:49:03;1.27;;;0.30;;
15043;SDS011;7619;48.562;8.910;2022-09-09T15:51:35;1.40;;;0.50;;
15043;SDS011;7619;48.562;8.910;2022-09-09T15:54:05;0.30;;;0.30;;
15043;SDS011;7619;48.562;8.910;2022-09-09T15:56:34;1.13;;;0.40;;
15043;SDS011;7619;48.562;8.910;2022-09-09T15:59:03;0.57;;;0.27;;
15043;SDS011;7619;48.562;8.910;2022-09-09T16:01:32;0.77;;;0.47;;
15043;SDS011;7619;48.562;8.910;2022-09-09T16:04:01;1.03;;;0.30;;
15043;SDS011;7619;48.562;8.910;2022-09-09T16:06:31;0.57;;;0.40;;
15043;SDS011;7619;48.562;8.910;2022-09-09T16:09:00;1.80;;;0.40;;